Time;durP1;ratioP1;P1;durP2;ratioP2;P2;SDS_P1;SDS_P2;PMS_P1;PMS_P2;Temp;Humidity;BMP_temperature;BMP_pressure;BME280_temperature;BME280_humidity;BME280_pressure;Samples;Min_cycle;Max_cycle;Signal;HPM_P1;HPM_P2
2021/06/27 00:01:55;;;;;;;;;;;19.80;46.90;;;;;;5013123;28;19905;-92
2021/06/27 00:04:21;;;;;;;;;;;19.80;46.90;;;;;;5012727;28;19905;-91
2021/06/27 00:06:46;;;;;;;;;;;19.80;47.00;;;;;;5014018;28;19941;-92
2021/06/27 00:09:12;;;;;;;;;;;19.80;48.00;;;;;;4996743;28;20382;-91
2021/06/27 00:11:38;;;;;;;;;;;;;;;;;;4994699;28;19909;-90
2021/06/27 00:14:04;;;;;;;;;;;;;;;;;;5010790;28;19933;-91
2021/06/27 00:16:31;;;;;;;;;;;19.80;49.00;;;;;;5013911;28;19915;-90
2021/06/27 00:18:57;;;;;;;;;;;19.80;49.10;;;;;;5006435;28;20366;-91
2021/06/27 00:21:23;;;;;;;;;;;19.80;49.30;;;;;;5004948;28;19988;-90
2021/06/27 00:23:50;;;;;;;;;;;19.70;49.40;;;;;;5033592;28;20354;-89
2021/06/27 00:26:15;;;;;;;;;;;;;;;;;;5006425;28;19961;-91
2021/06/27 00:28:42;;;;;;;;;;;19.70;49.40;;;;;;5012526;28;19918;-90
2021/06/27 00:31:07;;;;;;;;;;;19.70;49.30;;;;;;5013898;28;19905;-91
2021/06/27 00:33:33;;;;;;;;;;;19.60;49.70;;;;;;5012622;28;19913;-92
2021/06/27 00:35:59;;;;;;;;;;;19.60;50.00;;;;;;5012831;28;19906;-91
2021/06/27 00:38:24;;;;;;;;;;;19.60;49.60;;;;;;4993747;28;19909;-92
2021/06/27 00:40:50;;;;;;;;;;;;;;;;;;5008635;28;19916;-89
2021/06/27 00:43:16;;;;;;;;;;;19.50;49.30;;;;;;5045081;28;19912;-91
2021/06/27 00:45:41;;;;;;;;;;;19.50;49.50;;;;;;5013136;28;19914;-91
2021/06/27 00:48:07;;;;;;;;;;;19.50;49.90;;;;;;5013172;28;19917;-91
2021/06/27 00:50:34;;;;;;;;;;;19.50;50.20;;;;;;4993961;28;19905;-91
2021/06/27 00:53:00;;;;;;;;;;;19.40;50.20;;;;;;5009051;28;19909;-91
2021/06/27 00:55:26;;;;;;;;;;;19.30;50.10;;;;;;5013509;28;20436;-91
2021/06/27 00:57:52;;;;;;;;;;;;;;;;;;5011798;28;19931;-92
2021/06/27 01:00:18;;;;;;;;;;;;;;;;;;5011041;28;19916;-91
2021/06/27 01:02:44;;;;;;;;;;;19.30;51.00;;;;;;5004594;28;19905;-91
2021/06/27 01:05:10;;;;;;;;;;;;;;;;;;5013274;28;19909;-91
2021/06/27 01:07:35;;;;;;;;;;;19.30;51.30;;;;;;5009670;28;19917;-91
2021/06/27 01:10:01;;;;;;;;;;;19.30;51.70;;;;;;5012983;28;19960;-91
2021/06/27 01:12:27;;;;;;;;;;;;;;;;;;5011707;28;19936;-91
2021/06/27 01:14:54;;;;;;;;;;;19.20;51.20;;;;;;5013612;28;19921;-91
2021/06/27 01:17:20;;;;;;;;;;;19.20;51.90;;;;;;5001852;28;19906;-90
2021/06/27 01:19:45;;;;;;;;;;;19.20;51.80;;;;;;5007487;28;19913;-91
2021/06/27 01:22:11;;;;;;;;;;;19.10;51.90;;;;;;5001769;28;20382;-91
2021/06/27 01:24:36;;;;;;;;;;;19.10;52.10;;;;;;5008785;28;19914;-91
2021/06/27 01:27:02;;;;;;;;;;;19.10;52.10;;;;;;4993757;28;20374;-90
2021/06/27 01:29:27;;;;;;;;;;;19.20;52.60;;;;;;5008687;28;19914;-90
2021/06/27 01:31:53;;;;;;;;;;;19.20;52.20;;;;;;5004786;28;19910;-90
2021/06/27 01:34:19;;;;;;;;;;;19.20;52.20;;;;;;5006049;28;19909;-91
2021/06/27 01:36:45;;;;;;;;;;;19.20;52.20;;;;;;5008391;28;19941;-90
2021/06/27 01:39:10;;;;;;;;;;;;;;;;;;5011788;28;19913;-91
2021/06/27 01:41:36;;;;;;;;;;;;;;;;;;5029923;28;19909;-91
2021/06/27 01:44:02;;;;;;;;;;;;;;;;;;5010441;28;20328;-91
2021/06/27 01:46:28;;;;;;;;;;;19.00;52.30;;;;;;5012071;28;19916;-91
2021/06/27 01:48:53;;;;;;;;;;;18.90;52.00;;;;;;5008218;28;19941;-92
2021/06/27 01:51:19;;;;;;;;;;;19.00;52.60;;;;;;5002792;28;20319;-91
2021/06/27 01:53:44;;;;;;;;;;;19.00;53.10;;;;;;4999527;28;20000;-91
2021/06/27 01:56:10;;;;;;;;;;;19.10;52.80;;;;;;5016678;28;20362;-90
2021/06/27 01:58:35;;;;;;;;;;;19.10;53.00;;;;;;5016611;28;19905;-91
2021/06/27 02:01:01;;;;;;;;;;;19.10;53.40;;;;;;5012795;28;19993;-91
2021/06/27 02:03:27;;;;;;;;;;;19.20;53.20;;;;;;5011599;28;19905;-90
2021/06/27 02:05:52;;;;;;;;;;;19.10;53.40;;;;;;5015577;28;19909;-91
2021/06/27 02:08:18;;;;;;;;;;;19.10;52.80;;;;;;5015540;28;19917;-91
2021/06/27 02:10:43;;;;;;;;;;;19.10;52.70;;;;;;5013876;28;19910;-91
2021/06/27 02:13:09;;;;;;;;;;;19.10;52.80;;;;;;5005825;28;19998;-91
2021/06/27 02:15:35;;;;;;;;;;;;;;;;;;5006326;28;20271;-91
2021/06/27 02:18:09;;;;;;;;;;;19.10;53.40;;;;;;4996742;28;19910;-91
2021/06/27 02:20:35;;;;;;;;;;;;;;;;;;5015026;28;19992;-90
2021/06/27 02:23:01;;;;;;;;;;;19.00;53.00;;;;;;5016223;28;19983;-91
2021/06/27 02:25:26;;;;;;;;;;;;;;;;;;5014559;28;19905;-91
2021/06/27 02:27:52;;;;;;;;;;;;;;;;;;5016047;28;20302;-91
2021/06/27 02:30:18;;;;;;;;;;;18.90;53.80;;;;;;5015602;28;19956;-90
2021/06/27 02:32:44;;;;;;;;;;;18.90;53.80;;;;;;5015932;28;19908;-91
2021/06/27 02:35:10;;;;;;;;;;;19.00;54.00;;;;;;5004559;28;19910;-91
2021/06/27 02:37:36;;;;;;;;;;;19.00;54.10;;;;;;5015346;28;19909;-91
2021/06/27 02:40:02;;;;;;;;;;;;;;;;;;5013958;28;19913;-91
2021/06/27 02:42:28;;;;;;;;;;;19.10;53.70;;;;;;5044643;28;19925;-90
2021/06/27 02:44:53;;;;;;;;;;;19.10;53.60;;;;;;4996310;28;20004;-90
2021/06/27 02:47:19;;;;;;;;;;;19.20;54.10;;;;;;5013996;28;19909;-91
2021/06/27 02:49:45;;;;;;;;;;;;;;;;;;5005684;28;19910;-91
2021/06/27 02:52:10;;;;;;;;;;;19.20;54.20;;;;;;5031027;28;20013;-91
2021/06/27 02:54:36;;;;;;;;;;;19.20;53.80;;;;;;5010586;28;19952;-92
2021/06/27 02:57:01;;;;;;;;;;;19.10;53.90;;;;;;5010605;28;19945;-91
2021/06/27 02:59:27;;;;;;;;;;;19.20;54.30;;;;;;5011716;28;20115;-92
2021/06/27 03:01:52;;;;;;;;;;;19.20;53.80;;;;;;5010924;28;20655;-90
2021/06/27 03:04:18;;;;;;;;;;;19.20;53.50;;;;;;5024003;28;19916;-91
2021/06/27 03:06:43;;;;;;;;;;;19.20;53.60;;;;;;5024375;28;19909;-91
2021/06/27 03:09:09;;;;;;;;;;;19.20;53.70;;;;;;5014302;28;19913;-90
2021/06/27 03:11:34;;;;;;;;;;;19.20;53.80;;;;;;4998972;28;20051;-91
2021/06/27 03:14:00;;;;;;;;;;;19.20;54.20;;;;;;5007601;28;20306;-91
2021/06/27 03:16:25;;;;;;;;;;;19.20;54.30;;;;;;4998748;28;20370;-91
2021/06/27 03:18:51;;;;;;;;;;;19.20;54.40;;;;;;5015199;28;19992;-91
2021/06/27 03:21:16;;;;;;;;;;;19.20;53.70;;;;;;5013237;28;19905;-90
2021/06/27 03:23:42;;;;;;;;;;;;;;;;;;5013939;28;19979;-90
2021/06/27 03:26:08;;;;;;;;;;;;;;;;;;4998485;28;20329;-89
2021/06/27 03:28:36;;;;;;;;;;;19.30;51.80;;;;;;5028276;28;19959;-91
2021/06/27 03:31:01;;;;;;;;;;;19.30;51.00;;;;;;5003397;28;19917;-91
2021/06/27 03:33:27;;;;;;;;;;;19.20;50.60;;;;;;5014702;28;19906;-91
2021/06/27 03:35:53;;;;;;;;;;;19.20;49.90;;;;;;5014857;28;20322;-91
2021/06/27 03:38:24;;;;;;;;;;;19.30;49.70;;;;;;5008499;28;20378;-91
2021/06/27 03:40:50;;;;;;;;;;;19.30;50.60;;;;;;5000386;28;19955;-91
2021/06/27 03:43:16;;;;;;;;;;;;;;;;;;5006279;28;19969;-92
2021/06/27 03:45:42;;;;;;;;;;;;;;;;;;5010516;28;19905;-92
2021/06/27 03:48:08;;;;;;;;;;;19.50;51.90;;;;;;5013597;28;20008;-91
2021/06/27 03:50:34;;;;;;;;;;;;;;;;;;4995044;28;19906;-91
2021/06/27 03:52:59;;;;;;;;;;;19.40;51.30;;;;;;5017380;28;19985;-91
2021/06/27 03:55:25;;;;;;;;;;;19.40;51.30;;;;;;5010078;28;19906;-91
2021/06/27 03:57:51;;;;;;;;;;;19.40;51.30;;;;;;5010932;28;19917;-90
2021/06/27 04:00:17;;;;;;;;;;;;;;;;;;5012542;28;19909;-89
2021/06/27 04:02:43;;;;;;;;;;;19.40;52.40;;;;;;4996690;28;19906;-91
2021/06/27 04:05:09;;;;;;;;;;;19.50;54.50;;;;;;5012809;28;19933;-90
2021/06/27 04:07:36;;;;;;;;;;;19.50;54.80;;;;;;5014056;28;19918;-91
2021/06/27 04:10:01;;;;;;;;;;;19.50;53.70;;;;;;5012663;28;20595;-90
2021/06/27 04:12:27;;;;;;;;;;;;;;;;;;5013110;28;19920;-91
2021/06/27 04:14:53;;;;;;;;;;;19.50;53.10;;;;;;5014223;28;19960;-91
2021/06/27 04:17:21;;;;;;;;;;;19.50;52.90;;;;;;5013020;28;19909;-90
2021/06/27 04:19:47;;;;;;;;;;;;;;;;;;5014019;28;19992;-91
2021/06/27 04:22:13;;;;;;;;;;;;;;;;;;5045673;28;19956;-91
2021/06/27 04:24:38;;;;;;;;;;;19.50;51.40;;;;;;5016756;28;20392;-93
2021/06/27 04:27:04;;;;;;;;;;;19.50;51.50;;;;;;5032263;28;19912;-91
2021/06/27 04:29:30;;;;;;;;;;;19.50;51.80;;;;;;5013610;28;19910;-91
2021/06/27 04:31:55;;;;;;;;;;;19.50;51.80;;;;;;5013768;28;19928;-91
2021/06/27 04:34:21;;;;;;;;;;;19.50;51.10;;;;;;5003377;28;19909;-91
2021/06/27 04:36:47;;;;;;;;;;;;;;;;;;4994260;28;19912;-91
2021/06/27 04:39:15;;;;;;;;;;;19.50;51.40;;;;;;5013915;28;19976;-90
2021/06/27 04:41:42;;;;;;;;;;;19.50;52.00;;;;;;5014163;28;19992;-91
2021/06/27 04:44:07;;;;;;;;;;;19.50;51.90;;;;;;5013906;28;20378;-90
2021/06/27 04:46:33;;;;;;;;;;;19.60;51.70;;;;;;5001556;28;19933;-89
2021/06/27 04:48:59;;;;;;;;;;;19.60;52.00;;;;;;4994194;28;19929;-90
2021/06/27 04:51:24;;;;;;;;;;;19.70;51.20;;;;;;5009445;28;19909;-90
2021/06/27 04:53:50;;;;;;;;;;;19.70;50.90;;;;;;5013945;28;20294;-91
2021/06/27 04:56:15;;;;;;;;;;;19.80;51.10;;;;;;4996954;28;19906;-90
2021/06/27 04:58:41;;;;;;;;;;;19.80;50.30;;;;;;4997981;28;19913;-91
2021/06/27 05:01:06;;;;;;;;;;;19.80;50.70;;;;;;5000120;28;19917;-91
2021/06/27 05:03:32;;;;;;;;;;;;;;;;;;5045846;28;19936;-90
2021/06/27 05:05:58;;;;;;;;;;;19.80;50.60;;;;;;5023787;28;20616;-91
2021/06/27 05:08:23;;;;;;;;;;;19.80;50.60;;;;;;5012386;28;19924;-91
2021/06/27 05:10:49;;;;;;;;;;;19.70;51.00;;;;;;5013483;28;20010;-90
2021/06/27 05:13:14;;;;;;;;;;;19.70;51.40;;;;;;5010971;28;19938;-91
2021/06/27 05:15:40;;;;;;;;;;;19.70;52.00;;;;;;4997512;28;19917;-90
2021/06/27 05:18:06;;;;;;;;;;;;;;;;;;5012514;28;19992;-91
2021/06/27 05:20:31;;;;;;;;;;;19.80;50.80;;;;;;5032928;28;20000;-90
2021/06/27 05:22:57;;;;;;;;;;;19.80;50.40;;;;;;5008112;28;19953;-90
2021/06/27 05:25:22;;;;;;;;;;;19.90;50.80;;;;;;5010248;28;19916;-91
2021/06/27 05:27:48;;;;;;;;;;;20.00;50.90;;;;;;5008589;28;19922;-90
2021/06/27 05:30:14;;;;;;;;;;;20.20;50.40;;;;;;5017457;28;19913;-91
2021/06/27 05:32:39;;;;;;;;;;;20.20;49.20;;;;;;5016878;28;19905;-92
2021/06/27 05:35:05;;;;;;;;;;;20.40;49.30;;;;;;5015828;28;19913;-91
2021/06/27 05:37:30;;;;;;;;;;;20.60;48.80;;;;;;5016456;28;20309;-91
2021/06/27 05:39:56;;;;;;;;;;;20.70;48.90;;;;;;5015779;28;19983;-90
2021/06/27 05:42:21;;;;;;;;;;;20.60;49.70;;;;;;5012960;28;19948;-91
2021/06/27 05:44:47;;;;;;;;;;;20.80;48.50;;;;;;4996346;28;20000;-91
2021/06/27 05:47:13;;;;;;;;;;;20.70;47.80;;;;;;5008494;28;19909;-88
2021/06/27 05:49:38;;;;;;;;;;;20.80;47.90;;;;;;5015648;28;19917;-91
2021/06/27 05:52:04;;;;;;;;;;;20.80;47.80;;;;;;5015619;28;19912;-91
2021/06/27 05:54:29;;;;;;;;;;;20.90;48.70;;;;;;5015553;28;19940;-91
2021/06/27 05:56:55;;;;;;;;;;;20.90;47.60;;;;;;5015726;28;19989;-90
2021/06/27 05:59:20;;;;;;;;;;;21.10;46.80;;;;;;5015464;28;19905;-90
2021/06/27 06:01:46;;;;;;;;;;;21.10;46.60;;;;;;5002869;28;20396;-92
2021/06/27 06:04:11;;;;;;;;;;;21.20;46.40;;;;;;5007496;28;19906;-91
2021/06/27 06:06:37;;;;;;;;;;;21.40;46.70;;;;;;4996375;28;20004;-91
2021/06/27 06:09:02;;;;;;;;;;;21.40;46.70;;;;;;5016231;28;20017;-91
2021/06/27 06:11:28;;;;;;;;;;;;;;;;;;5016464;28;19924;-90
2021/06/27 06:13:55;;;;;;;;;;;21.50;47.30;;;;;;5032741;28;19913;-90
2021/06/27 06:16:21;;;;;;;;;;;21.60;46.20;;;;;;5008568;28;20333;-91
2021/06/27 06:18:46;;;;;;;;;;;21.70;46.40;;;;;;4998432;28;19920;-91
2021/06/27 06:21:12;;;;;;;;;;;21.80;46.40;;;;;;5014601;28;19905;-91
2021/06/27 06:23:39;;;;;;;;;;;21.80;45.30;;;;;;5011845;28;19910;-91
2021/06/27 06:26:04;;;;;;;;;;;21.90;46.00;;;;;;5005428;28;19956;-91
2021/06/27 06:28:30;;;;;;;;;;;21.90;46.50;;;;;;5007787;28;19960;-91
2021/06/27 06:30:55;;;;;;;;;;;22.00;46.80;;;;;;5015819;28;20405;-91
2021/06/27 06:33:21;;;;;;;;;;;22.10;45.60;;;;;;5012978;28;19905;-91
2021/06/27 06:35:47;;;;;;;;;;;22.30;46.90;;;;;;5008944;28;19963;-91
2021/06/27 06:38:12;;;;;;;;;;;22.40;47.40;;;;;;5014427;28;19956;-91
2021/06/27 06:40:41;;;;;;;;;;;;;;;;;;5007372;28;19909;-90
2021/06/27 06:43:07;;;;;;;;;;;22.80;45.50;;;;;;5015300;28;19983;-90
2021/06/27 06:45:33;;;;;;;;;;;23.00;46.20;;;;;;5010845;28;20367;-91
2021/06/27 06:47:58;;;;;;;;;;;23.20;43.40;;;;;;5010421;28;19971;-92
2021/06/27 06:50:24;;;;;;;;;;;23.40;43.30;;;;;;5008852;28;19917;-92
2021/06/27 06:52:49;;;;;;;;;;;23.80;41.80;;;;;;5011150;28;20547;-91
2021/06/27 06:55:15;;;;;;;;;;;24.10;41.50;;;;;;5004701;28;19906;-91
2021/06/27 06:57:41;;;;;;;;;;;24.70;39.60;;;;;;5015467;28;19905;-90
2021/06/27 07:00:08;;;;;;;;;;;25.30;38.50;;;;;;5015737;28;20358;-90
2021/06/27 07:02:33;;;;;;;;;;;26.20;36.00;;;;;;5014672;28;20428;-90
2021/06/27 07:05:00;;;;;;;;;;;26.60;34.50;;;;;;5015784;28;19909;-91
2021/06/27 07:07:25;;;;;;;;;;;26.90;34.40;;;;;;5015665;28;19953;-91
2021/06/27 07:09:51;;;;;;;;;;;26.80;33.50;;;;;;5014554;28;20619;-91
2021/06/27 07:12:16;;;;;;;;;;;26.60;34.00;;;;;;5014099;28;19905;-91
2021/06/27 07:14:44;;;;;;;;;;;;;;;;;;5013944;28;19948;-91
2021/06/27 07:17:10;;;;;;;;;;;26.10;36.40;;;;;;5015274;28;19959;-91
2021/06/27 07:19:35;;;;;;;;;;;25.90;37.20;;;;;;5021119;28;19909;-91
2021/06/27 07:22:01;;;;;;;;;;;25.70;37.70;;;;;;5010952;28;19948;-91
2021/06/27 07:24:26;;;;;;;;;;;25.50;38.60;;;;;;5012972;28;19909;-91
2021/06/27 07:26:52;;;;;;;;;;;25.50;38.60;;;;;;5013839;28;19912;-91
2021/06/27 07:29:17;;;;;;;;;;;25.60;38.80;;;;;;4996445;28;19921;-91
2021/06/27 07:31:43;;;;;;;;;;;25.70;38.50;;;;;;5014450;28;20000;-91
2021/06/27 07:34:08;;;;;;;;;;;25.70;38.50;;;;;;5010449;28;20001;-91
2021/06/27 07:36:34;;;;;;;;;;;25.50;38.70;;;;;;5013390;28;19951;-91
2021/06/27 07:38:59;;;;;;;;;;;25.30;38.90;;;;;;5013859;28;19936;-91
2021/06/27 07:41:25;;;;;;;;;;;25.20;39.50;;;;;;5014721;28;19952;-91
2021/06/27 07:43:51;;;;;;;;;;;25.40;39.10;;;;;;5000749;28;19960;-91
2021/06/27 07:46:17;;;;;;;;;;;25.60;38.50;;;;;;5005920;28;19905;-91
2021/06/27 07:48:42;;;;;;;;;;;26.20;37.50;;;;;;5014357;28;20393;-91
2021/06/27 07:51:08;;;;;;;;;;;26.20;37.40;;;;;;5013475;28;19910;-91
2021/06/27 07:53:33;;;;;;;;;;;26.00;38.30;;;;;;5014344;28;19984;-90
2021/06/27 07:55:59;;;;;;;;;;;26.00;37.80;;;;;;5014323;28;19905;-91
2021/06/27 07:58:24;;;;;;;;;;;26.30;43.90;;;;;;5009727;28;19952;-91
2021/06/27 08:00:50;;;;;;;;;;;26.80;38.80;;;;;;4998441;28;19967;-92
2021/06/27 08:03:15;;;;;;;;;;;27.00;38.60;;;;;;5012005;28;19958;-91
2021/06/27 08:05:41;;;;;;;;;;;27.20;36.90;;;;;;4993895;28;20389;-92
2021/06/27 08:08:06;;;;;;;;;;;27.10;36.80;;;;;;5007450;28;19924;-92
2021/06/27 08:10:32;;;;;;;;;;;26.90;36.70;;;;;;5002562;28;19920;-92
2021/06/27 08:12:57;;;;;;;;;;;26.80;36.30;;;;;;4996963;28;19910;-91
2021/06/27 08:15:23;;;;;;;;;;;26.70;37.60;;;;;;5028788;28;19922;-90
2021/06/27 08:17:49;;;;;;;;;;;26.50;37.60;;;;;;5014436;28;19920;-92
2021/06/27 08:20:15;;;;;;;;;;;26.70;37.80;;;;;;4996947;28;19909;-92
2021/06/27 08:22:41;;;;;;;;;;;27.00;37.30;;;;;;5006344;28;19909;-92
2021/06/27 08:25:07;;;;;;;;;;;27.70;36.50;;;;;;5006034;28;20374;-92
2021/06/27 08:27:33;;;;;;;;;;;28.30;36.70;;;;;;5010939;28;19972;-92
2021/06/27 08:29:58;;;;;;;;;;;28.50;34.40;;;;;;5013092;28;19909;-94
2021/06/27 08:32:24;;;;;;;;;;;29.20;32.60;;;;;;5012198;28;19996;-92
2021/06/27 08:34:49;;;;;;;;;;;29.30;33.10;;;;;;5011714;28;19906;-92
2021/06/27 08:37:15;;;;;;;;;;;29.40;32.00;;;;;;5011871;28;19909;-92
2021/06/27 08:39:40;;;;;;;;;;;29.70;33.10;;;;;;5009559;28;19913;-94
2021/06/27 08:42:06;;;;;;;;;;;29.70;31.60;;;;;;4997005;28;19914;-91
2021/06/27 08:44:32;;;;;;;;;;;;;;;;;;5012049;28;20247;-93
2021/06/27 08:46:58;;;;;;;;;;;30.10;31.30;;;;;;5013861;28;19906;-93
2021/06/27 08:49:24;;;;;;;;;;;30.30;32.00;;;;;;5010786;28;19918;-92
2021/06/27 08:51:50;;;;;;;;;;;30.50;31.60;;;;;;5009087;28;20290;-93
2021/06/27 08:54:15;;;;;;;;;;;30.80;30.30;;;;;;5054718;28;19912;-91
2021/06/27 08:56:41;;;;;;;;;;;30.70;30.90;;;;;;5001056;28;19945;-93
2021/06/27 08:59:06;;;;;;;;;;;30.60;30.00;;;;;;5010649;28;19906;-92
2021/06/27 09:01:32;;;;;;;;;;;30.40;30.60;;;;;;5007598;28;19972;-92
2021/06/27 09:03:58;;;;;;;;;;;30.70;29.90;;;;;;5003337;28;20468;-92
2021/06/27 09:06:24;;;;;;;;;;;31.00;30.00;;;;;;5001166;28;19956;-92
2021/06/27 09:09:09;;;;;;;;;;;31.30;30.00;;;;;;5017752;28;19952;-92
2021/06/27 09:11:34;;;;;;;;;;;31.40;29.50;;;;;;5016303;28;19941;-92
2021/06/27 09:14:00;;;;;;;;;;;31.90;29.20;;;;;;5009770;28;20032;-92
2021/06/27 09:16:25;;;;;;;;;;;32.00;29.00;;;;;;5017865;28;19913;-93
2021/06/27 09:18:52;;;;;;;;;;;32.20;29.20;;;;;;5017336;28;19953;-93
2021/06/27 09:21:18;;;;;;;;;;;;;;;;;;5016844;28;20370;-92
2021/06/27 09:23:44;;;;;;;;;;;33.40;28.50;;;;;;5017108;28;19906;-92
2021/06/27 09:26:10;;;;;;;;;;;33.80;25.90;;;;;;5000380;28;19913;-92
2021/06/27 09:28:41;;;;;;;;;;;34.10;24.00;;;;;;5010166;28;19913;-93
2021/06/27 09:31:07;;;;;;;;;;;34.20;25.30;;;;;;5015526;28;19913;-93
2021/06/27 09:33:33;;;;;;;;;;;34.10;24.10;;;;;;5016221;28;19905;-93
2021/06/27 09:36:06;;;;;;;;;;;33.90;22.80;;;;;;5016006;28;19910;-91
2021/06/27 09:38:35;;;;;;;;;;;33.60;22.90;;;;;;5017123;28;20378;-91
2021/06/27 09:41:04;;;;;;;;;;;32.90;24.00;;;;;;5017509;28;19909;-92
2021/06/27 09:43:31;;;;;;;;;;;32.90;23.90;;;;;;4997464;28;19910;-93
2021/06/27 09:45:58;;;;;;;;;;;33.00;22.90;;;;;;5012878;28;19905;-93
2021/06/27 09:48:25;;;;;;;;;;;33.10;23.10;;;;;;5016766;28;19917;-93
2021/06/27 09:50:51;;;;;;;;;;;33.10;23.90;;;;;;5016898;28;19945;-93
2021/06/27 09:53:49;;;;;;;;;;;32.80;24.00;;;;;;5015513;28;19909;-93
2021/06/27 09:56:15;;;;;;;;;;;32.00;24.60;;;;;;5005509;28;20022;-91
2021/06/27 09:58:53;;;;;;;;;;;31.40;25.30;;;;;;4994058;28;19905;-92
2021/06/27 10:01:22;;;;;;;;;;;30.70;25.60;;;;;;4991917;28;19913;-93
2021/06/27 10:03:56;;;;;;;;;;;30.50;26.70;;;;;;5014513;28;19909;-93
2021/06/27 10:06:23;;;;;;;;;;;30.20;26.40;;;;;;5014651;28;19912;-94
2021/06/27 10:08:49;;;;;;;;;;;29.70;27.40;;;;;;5014507;28;19917;-91
2021/06/27 10:11:16;;;;;;;;;;;29.60;27.00;;;;;;5005251;28;20290;-92
2021/06/27 10:13:43;;;;;;;;;;;29.70;27.00;;;;;;5007664;28;19944;-91
2021/06/27 10:16:11;;;;;;;;;;;29.90;27.70;;;;;;5010778;28;19922;-93
2021/06/27 10:18:36;;;;;;;;;;;30.10;27.00;;;;;;5005694;28;20004;-92
2021/06/27 10:21:02;;;;;;;;;;;30.00;26.90;;;;;;5013984;28;19948;-92
2021/06/27 10:23:27;;;;;;;;;;;29.80;26.70;;;;;;5002806;28;19985;-91
2021/06/27 10:25:53;;;;;;;;;;;29.50;26.80;;;;;;5008630;28;19920;-91
2021/06/27 10:28:19;;;;;;;;;;;29.40;27.00;;;;;;5014085;28;19917;-91
2021/06/27 10:30:44;;;;;;;;;;;29.40;27.20;;;;;;5011118;28;19913;-93
2021/06/27 10:33:10;;;;;;;;;;;29.50;27.30;;;;;;5015516;28;19909;-93
2021/06/27 10:35:36;;;;;;;;;;;29.50;27.40;;;;;;5014825;28;19905;-93
2021/06/27 10:38:03;;;;;;;;;;;29.60;28.10;;;;;;5014368;28;20270;-94
2021/06/27 10:40:47;;;;;;;;;;;29.60;26.50;;;;;;5015517;28;19920;-93
2021/06/27 10:43:13;;;;;;;;;;;29.70;26.50;;;;;;5004657;28;19983;-90
2021/06/27 10:45:47;;;;;;;;;;;30.20;26.10;;;;;;5011552;28;20386;-92
2021/06/27 10:48:31;;;;;;;;;;;30.50;26.30;;;;;;5011727;28;20366;-92
2021/06/27 10:50:57;;;;;;;;;;;30.70;26.20;;;;;;5015694;28;19905;-93
2021/06/27 10:53:22;;;;;;;;;;;31.00;27.00;;;;;;5014048;28;20325;-92
2021/06/27 10:55:48;;;;;;;;;;;31.20;26.50;;;;;;5007505;28;20019;-92
2021/06/27 10:58:14;;;;;;;;;;;31.10;26.30;;;;;;5006296;28;19910;-93
2021/06/27 11:01:05;;;;;;;;;;;31.00;24.80;;;;;;5011716;28;19945;-92
2021/06/27 11:03:32;;;;;;;;;;;31.20;25.00;;;;;;5003809;28;20404;-93
2021/06/27 11:05:59;;;;;;;;;;;31.20;24.60;;;;;;5016180;28;19909;-93
2021/06/27 11:08:33;;;;;;;;;;;31.00;25.60;;;;;;5014675;28;20305;-93
2021/06/27 11:11:01;;;;;;;;;;;30.80;24.60;;;;;;5014720;28;20405;-92
2021/06/27 11:13:27;;;;;;;;;;;30.50;24.40;;;;;;5005405;28;19905;-90
2021/06/27 11:15:53;;;;;;;;;;;;;;;;;;5009021;28;19924;-94
2021/06/27 11:18:29;;;;;;;;;;;29.70;26.40;;;;;;5013131;28;19916;-92
2021/06/27 11:20:55;;;;;;;;;;;29.20;24.60;;;;;;5013375;28;19951;-92
2021/06/27 11:23:39;;;;;;;;;;;29.20;24.70;;;;;;4996768;28;19905;-93
2021/06/27 11:26:04;;;;;;;;;;;28.30;26.00;;;;;;5009713;28;19909;-91
2021/06/27 11:28:30;;;;;;;;;;;28.20;27.60;;;;;;5012588;28;20381;-93
2021/06/27 11:31:15;;;;;;;;;;;28.20;27.30;;;;;;5010562;28;19917;-93
2021/06/27 11:33:41;;;;;;;;;;;28.20;27.80;;;;;;4998208;28;19910;-94
2021/06/27 11:36:23;;;;;;;;;;;28.30;28.00;;;;;;4998468;28;21147;-93
2021/06/27 11:38:49;;;;;;;;;;;28.30;28.20;;;;;;5009457;28;19909;-91
2021/06/27 11:41:18;;;;;;;;;;;28.20;26.50;;;;;;4998073;28;20283;-91
2021/06/27 11:43:52;;;;;;;;;;;28.20;26.30;;;;;;5002984;28;19909;-92
2021/06/27 11:46:36;;;;;;;;;;;28.20;28.10;;;;;;5000190;28;19909;-92
2021/06/27 11:49:06;;;;;;;;;;;28.20;27.40;;;;;;5013262;28;19917;-90
2021/06/27 11:51:35;;;;;;;;;;;28.40;28.90;;;;;;5003294;28;20365;-90
2021/06/27 11:54:02;;;;;;;;;;;28.40;28.80;;;;;;5013779;28;19909;-91
2021/06/27 11:56:28;;;;;;;;;;;;;;;;;;5013592;28;20531;-92
2021/06/27 11:59:09;;;;;;;;;;;28.70;28.50;;;;;;5005930;28;19916;-91
2021/06/27 12:01:34;;;;;;;;;;;28.90;30.30;;;;;;5004128;28;19910;-92
2021/06/27 12:04:00;;;;;;;;;;;29.00;29.50;;;;;;5002317;28;20286;-90
2021/06/27 12:06:34;;;;;;;;;;;29.00;28.00;;;;;;5012369;28;19912;-91
2021/06/27 12:08:59;;;;;;;;;;;29.00;29.40;;;;;;5014465;28;19952;-92
2021/06/27 12:11:24;;;;;;;;;;;29.00;27.70;;;;;;5007362;28;19910;-90
2021/06/27 12:13:54;;;;;;;;;;;29.10;29.50;;;;;;5012713;28;20259;-93
2021/06/27 12:16:20;;;;;;;;;;;29.00;29.50;;;;;;5004660;28;19921;-91
2021/06/27 12:18:45;;;;;;;;;;;28.90;27.20;;;;;;5014287;28;19909;-91
2021/06/27 12:21:14;;;;;;;;;;;28.80;27.90;;;;;;5012501;28;19909;-91
2021/06/27 12:23:42;;;;;;;;;;;28.70;28.70;;;;;;5012042;28;20440;-91
2021/06/27 12:26:12;;;;;;;;;;;28.60;27.00;;;;;;5011514;28;19952;-92
2021/06/27 12:28:49;;;;;;;;;;;28.40;29.50;;;;;;5009383;28;19921;-90
2021/06/27 12:31:20;;;;;;;;;;;28.40;28.30;;;;;;5009323;28;19909;-92
2021/06/27 12:33:49;;;;;;;;;;;28.40;28.90;;;;;;5012092;28;19906;-92
2021/06/27 12:36:15;;;;;;;;;;;;;;;;;;5005578;28;19928;-91
2021/06/27 12:38:46;;;;;;;;;;;28.30;28.20;;;;;;4997009;28;19996;-91
2021/06/27 12:41:17;;;;;;;;;;;28.30;29.50;;;;;;5009626;28;19905;-91
2021/06/27 12:43:43;;;;;;;;;;;28.20;29.10;;;;;;5008589;28;19909;-93
2021/06/27 12:46:17;;;;;;;;;;;28.20;28.20;;;;;;5002459;28;19910;-90
2021/06/27 12:48:44;;;;;;;;;;;28.20;28.80;;;;;;5012477;28;19921;-90
2021/06/27 12:51:32;;;;;;;;;;;28.20;27.80;;;;;;5008853;28;20692;-91
2021/06/27 12:54:08;;;;;;;;;;;28.20;28.50;;;;;;5013816;28;19963;-90
2021/06/27 12:56:38;;;;;;;;;;;28.20;29.10;;;;;;5009346;28;19937;-92
2021/06/27 12:59:05;;;;;;;;;;;28.30;29.90;;;;;;4997702;28;19905;-91
2021/06/27 13:01:50;;;;;;;;;;;28.40;30.00;;;;;;5005679;28;19916;-91
2021/06/27 13:04:22;;;;;;;;;;;28.40;28.00;;;;;;5003949;28;19906;-91
2021/06/27 13:06:54;;;;;;;;;;;28.40;29.40;;;;;;5001003;28;20048;-91
2021/06/27 13:09:20;;;;;;;;;;;28.50;28.70;;;;;;5011149;28;19914;-91
2021/06/27 13:12:04;;;;;;;;;;;28.50;29.00;;;;;;5005852;28;19927;-91
2021/06/27 13:14:30;;;;;;;;;;;28.50;28.40;;;;;;5012085;28;19923;-91
2021/06/27 13:17:08;;;;;;;;;;;28.50;30.40;;;;;;5011985;28;19992;-91
2021/06/27 13:19:35;;;;;;;;;;;28.50;28.90;;;;;;5012044;28;20021;-91
2021/06/27 13:22:26;;;;;;;;;;;28.40;28.80;;;;;;5006417;28;19912;-91
2021/06/27 13:25:10;;;;;;;;;;;28.20;27.80;;;;;;4999203;28;19925;-91
2021/06/27 13:27:35;;;;;;;;;;;28.20;30.50;;;;;;4996094;28;19921;-92
2021/06/27 13:30:15;;;;;;;;;;;28.10;30.50;;;;;;4994026;28;19905;-93
2021/06/27 13:32:41;;;;;;;;;;;28.00;28.60;;;;;;5004998;28;19905;-92
2021/06/27 13:35:07;;;;;;;;;;;;;;;;;;5008526;28;19906;-92
2021/06/27 13:37:52;;;;;;;;;;;28.00;27.60;;;;;;5005067;28;19909;-92
2021/06/27 13:40:17;;;;;;;;;;;28.00;28.00;;;;;;5007895;28;19906;-91
2021/06/27 13:42:43;;;;;;;;;;;27.90;28.90;;;;;;4997066;28;19905;-91
2021/06/27 13:45:08;;;;;;;;;;;27.70;29.70;;;;;;5016988;28;19917;-91
2021/06/27 13:47:34;;;;;;;;;;;27.60;28.50;;;;;;5015532;28;20271;-92
2021/06/27 13:49:59;;;;;;;;;;;27.60;28.80;;;;;;5015796;28;19925;-92
2021/06/27 13:52:25;;;;;;;;;;;27.70;29.30;;;;;;5014132;28;19917;-92
2021/06/27 13:54:50;;;;;;;;;;;27.70;30.00;;;;;;5011801;28;19952;-92
2021/06/27 13:57:16;;;;;;;;;;;27.70;31.40;;;;;;5013291;28;20393;-92
2021/06/27 13:59:41;;;;;;;;;;;27.70;30.20;;;;;;5031835;28;19909;-91
2021/06/27 14:02:07;;;;;;;;;;;27.60;29.50;;;;;;5016398;28;19945;-92
2021/06/27 14:04:32;;;;;;;;;;;27.60;29.50;;;;;;5016042;28;20428;-92
2021/06/27 14:06:58;;;;;;;;;;;27.70;30.00;;;;;;5011999;28;19914;-92
2021/06/27 14:09:25;;;;;;;;;;;27.70;29.90;;;;;;5008283;28;19914;-92
2021/06/27 14:11:50;;;;;;;;;;;27.70;29.90;;;;;;4996906;28;20697;-92
2021/06/27 14:14:16;;;;;;;;;;;27.70;29.20;;;;;;5014238;28;19916;-93
2021/06/27 14:16:46;;;;;;;;;;;27.60;29.70;;;;;;5015223;28;19996;-91
2021/06/27 14:19:15;;;;;;;;;;;27.60;30.10;;;;;;5016371;28;19912;-92
2021/06/27 14:21:43;;;;;;;;;;;27.50;29.20;;;;;;5015368;28;19909;-92
2021/06/27 14:24:09;;;;;;;;;;;27.40;29.40;;;;;;5015388;28;19916;-92
2021/06/27 14:26:34;;;;;;;;;;;27.40;30.20;;;;;;5016644;28;19906;-91
2021/06/27 14:29:00;;;;;;;;;;;27.30;30.80;;;;;;5016041;28;19913;-92
2021/06/27 14:31:26;;;;;;;;;;;27.20;31.30;;;;;;5015267;28;20336;-92